Time;durP1;ratioP1;P1;durP2;ratioP2;P2;SDS_P1;SDS_P2;PMS_P1;PMS_P2;Temp;Humidity;BMP_temperature;BMP_pressure;BME280_temperature;BME280_humidity;BME280_pressure;Samples;Min_cycle;Max_cycle;Signal;HPM_P1;HPM_P2
2021/09/24 00:00:14;;;;;;;16.67;13.40;;;14.30;99.90;;;;;;6127810;23;20414;-91
2021/09/24 00:02:41;;;;;;;17.20;11.60;;;14.30;99.90;;;;;;6128926;23;20411;-92
2021/09/24 00:05:09;;;;;;;12.60;11.27;;;14.30;99.90;;;;;;6127802;23;20424;-91
2021/09/24 00:07:38;;;;;;;13.63;11.13;;;14.30;99.90;;;;;;6127879;23;20406;-91
2021/09/24 00:10:06;;;;;;;13.60;11.00;;;14.30;99.90;;;;;;6128236;23;20405;-91
2021/09/24 00:12:33;;;;;;;13.10;11.17;;;14.30;99.90;;;;;;6130604;23;20407;-90
2021/09/24 00:15:00;;;;;;;18.83;11.70;;;14.30;99.90;;;;;;6128048;23;20448;-92
2021/09/24 00:17:27;;;;;;;13.70;12.13;;;14.30;99.90;;;;;;6142270;23;20476;-90
2021/09/24 00:19:54;;;;;;;16.03;12.03;;;14.20;99.90;;;;;;6145881;23;21009;-91
2021/09/24 00:22:21;;;;;;;14.97;10.83;;;14.30;99.90;;;;;;6129615;23;20433;-92
2021/09/24 00:24:50;;;;;;;16.50;12.53;;;14.30;99.90;;;;;;6145912;23;20426;-90
2021/09/24 00:27:17;;;;;;;13.23;11.80;;;14.30;99.90;;;;;;6141119;23;21205;-91
2021/09/24 00:29:43;;;;;;;12.67;11.27;;;14.30;99.90;;;;;;6140125;23;20920;-91
2021/09/24 00:32:10;;;;;;;15.67;9.80;;;14.20;99.90;;;;;;6133451;23;20406;-91
2021/09/24 00:34:37;;;;;;;14.43;11.53;;;14.20;99.90;;;;;;6132199;23;20941;-91
2021/09/24 00:37:04;;;;;;;13.40;11.90;;;14.20;99.90;;;;;;6131823;23;20400;-90
2021/09/24 00:39:31;;;;;;;14.70;10.23;;;14.10;99.90;;;;;;6146779;23;20395;-91
2021/09/24 00:41:59;;;;;;;11.23;10.13;;;14.10;99.90;;;;;;6137452;23;20788;-90
2021/09/24 00:44:27;;;;;;;12.77;10.30;;;14.10;99.90;;;;;;6127204;23;20424;-91
2021/09/24 00:46:55;;;;;;;14.13;9.43;;;14.10;99.90;;;;;;6127817;23;20899;-92
2021/09/24 00:49:22;;;;;;;14.23;8.47;;;14.10;99.90;;;;;;6129010;23;20546;-91
2021/09/24 00:51:48;;;;;;;10.63;9.07;;;14.10;99.90;;;;;;6127882;23;20418;-92
2021/09/24 00:54:15;;;;;;;10.33;9.40;;;14.20;99.90;;;;;;6127962;23;20437;-91
2021/09/24 00:56:42;;;;;;;11.70;9.13;;;14.20;99.90;;;;;;6144571;23;20426;-90
2021/09/24 00:59:10;;;;;;;11.83;10.40;;;14.30;99.90;;;;;;6130140;23;20402;-91
2021/09/24 01:01:37;;;;;;;13.80;9.80;;;14.30;99.90;;;;;;6135957;23;20407;-90
2021/09/24 01:04:04;;;;;;;13.63;10.10;;;14.20;99.90;;;;;;6153575;23;20403;-90
2021/09/24 01:06:31;;;;;;;11.20;9.70;;;14.20;99.90;;;;;;6142193;23;20486;-92
2021/09/24 01:08:58;;;;;;;13.27;10.03;;;14.10;99.90;;;;;;6145212;23;20411;-91
2021/09/24 01:11:25;;;;;;;11.50;9.73;;;14.10;99.90;;;;;;6130130;23;20413;-91
2021/09/24 01:13:52;;;;;;;13.77;10.07;;;14.10;99.90;;;;;;6128838;23;20423;-91
2021/09/24 01:16:20;;;;;;;14.57;10.87;;;14.10;99.90;;;;;;6128378;23;20436;-91
2021/09/24 01:18:47;;;;;;;14.20;10.17;;;14.10;99.90;;;;;;6128421;23;20826;-91
2021/09/24 01:21:15;;;;;;;12.23;10.70;;;14.10;99.90;;;;;;6128275;23;20397;-90
2021/09/24 01:23:42;;;;;;;12.13;10.30;;;14.10;99.90;;;;;;6128341;23;20408;-91
2021/09/24 01:26:08;;;;;;;11.77;10.10;;;14.10;99.90;;;;;;6150470;23;20415;-91
2021/09/24 01:28:35;;;;;;;13.17;10.83;;;14.00;99.90;;;;;;6141195;23;20918;-90
2021/09/24 01:31:02;;;;;;;13.50;10.57;;;14.00;99.90;;;;;;6127757;23;20410;-91
2021/09/24 01:33:29;;;;;;;11.37;10.17;;;13.90;99.90;;;;;;6127451;23;20460;-90
2021/09/24 01:35:56;;;;;;;13.73;10.90;;;13.90;99.90;;;;;;6127299;23;20444;-91
2021/09/24 01:38:24;;;;;;;13.50;10.00;;;13.90;99.90;;;;;;6135257;23;20411;-91
2021/09/24 01:40:51;;;;;;;11.47;10.27;;;13.80;99.90;;;;;;6129482;23;20425;-91
2021/09/24 01:43:17;;;;;;;16.40;11.47;;;13.80;99.90;;;;;;6127406;23;20413;-91
2021/09/24 01:45:44;;;;;;;15.93;11.83;;;13.80;99.90;;;;;;6126769;23;20426;-92
2021/09/24 01:48:11;;;;;;;15.17;11.17;;;13.70;99.90;;;;;;6126406;23;20400;-91
2021/09/24 01:50:38;;;;;;;14.80;10.30;;;13.70;99.90;;;;;;6128012;23;20408;-92
2021/09/24 01:53:04;;;;;;;14.50;11.40;;;13.70;99.90;;;;;;6128421;23;20409;-92
2021/09/24 01:55:33;;;;;;;18.40;13.77;;;13.80;99.90;;;;;;6128349;23;20453;-91
2021/09/24 01:57:59;;;;;;;17.30;12.80;;;13.70;99.90;;;;;;6151915;23;20404;-89
2021/09/24 02:00:26;;;;;;;13.10;11.50;;;13.70;99.90;;;;;;6134309;23;20449;-91
2021/09/24 02:02:53;;;;;;;16.70;11.80;;;13.70;99.90;;;;;;6128758;23;20416;-91
2021/09/24 02:05:20;;;;;;;13.00;9.80;;;13.60;99.90;;;;;;6131230;23;20427;-90
2021/09/24 02:07:47;;;;;;;15.13;10.87;;;13.60;99.90;;;;;;6143822;23;20414;-91
2021/09/24 02:10:14;;;;;;;16.10;10.17;;;13.50;99.90;;;;;;6144272;23;20417;-91
2021/09/24 02:12:42;;;;;;;12.10;10.30;;;13.40;99.90;;;;;;6147675;23;20508;-91
2021/09/24 02:15:10;;;;;;;13.77;11.70;;;13.30;99.90;;;;;;6146683;23;20445;-91
2021/09/24 02:17:37;;;;;;;13.93;12.00;;;13.30;99.90;;;;;;6128972;23;20405;-91
2021/09/24 02:20:09;;;;;;;17.83;11.10;;;13.30;99.90;;;;;;6127932;23;20414;-93
2021/09/24 02:22:37;;;;;;;15.67;11.80;;;13.30;99.90;;;;;;6126154;23;20689;-92
2021/09/24 02:25:05;;;;;;;14.73;12.10;;;13.30;99.90;;;;;;6126701;23;20417;-92
2021/09/24 02:27:32;;;;;;;15.07;13.27;;;13.30;99.90;;;;;;6128549;23;20416;-92
2021/09/24 02:30:00;;;;;;;12.13;10.87;;;13.30;99.90;;;;;;6127739;23;20417;-92
2021/09/24 02:32:27;;;;;;;13.57;11.67;;;13.40;99.90;;;;;;6126956;23;20420;-92
2021/09/24 02:34:53;;;;;;;15.73;11.67;;;13.30;99.90;;;;;;6129151;23;20455;-92
2021/09/24 02:37:20;;;;;;;15.80;11.53;;;13.20;99.90;;;;;;6127270;23;20739;-92
2021/09/24 02:39:47;;;;;;;16.17;11.53;;;13.20;99.90;;;;;;6127455;23;20410;-91
2021/09/24 02:42:14;;;;;;;15.43;11.20;;;13.10;99.90;;;;;;6126911;23;20428;-92
2021/09/24 02:44:41;;;;;;;12.67;11.37;;;13.20;99.90;;;;;;6128126;23;20433;-89
2021/09/24 02:47:09;;;;;;;15.83;12.27;;;13.10;99.90;;;;;;6152334;23;20404;-91
2021/09/24 02:49:37;;;;;;;12.40;11.10;;;13.10;99.90;;;;;;6153750;23;20405;-89
2021/09/24 02:52:05;;;;;;;11.80;10.60;;;13.10;99.90;;;;;;6151779;23;20414;-91
2021/09/24 02:54:31;;;;;;;13.10;9.80;;;13.10;99.90;;;;;;6148575;23;20416;-91
2021/09/24 02:56:58;;;;;;;15.77;10.97;;;13.00;99.90;;;;;;6147092;23;20400;-91
2021/09/24 02:59:25;;;;;;;18.20;12.70;;;13.00;99.90;;;;;;6137837;23;20388;-91
2021/09/24 03:01:54;;;;;;;14.90;12.17;;;13.10;99.90;;;;;;6130378;23;20491;-91
2021/09/24 03:04:22;;;;;;;18.53;12.60;;;13.00;99.90;;;;;;6131687;23;20429;-90
2021/09/24 03:06:49;;;;;;;21.53;12.90;;;13.00;99.90;;;;;;6143125;23;20468;-91
2021/09/24 03:09:16;;;;;;;15.67;13.00;;;12.90;99.90;;;;;;6129464;23;20905;-91
2021/09/24 03:11:42;;;;;;;17.47;12.50;;;12.90;99.90;;;;;;6129391;23;20400;-91
2021/09/24 03:14:09;;;;;;;17.03;12.60;;;12.80;99.90;;;;;;6148863;23;20434;-92
2021/09/24 03:16:37;;;;;;;17.20;12.60;;;12.90;99.90;;;;;;6144017;23;20435;-90
2021/09/24 03:19:05;;;;;;;16.20;12.60;;;12.90;99.90;;;;;;6128456;23;20894;-91
2021/09/24 03:21:33;;;;;;;16.00;12.50;;;13.00;99.90;;;;;;6129239;23;20422;-91
2021/09/24 03:23:59;;;;;;;19.20;13.00;;;13.00;99.90;;;;;;6128964;23;20407;-90
2021/09/24 03:26:26;;;;;;;15.03;12.60;;;13.00;99.90;;;;;;6127781;23;20415;-91
2021/09/24 03:28:53;;;;;;;18.93;13.20;;;13.00;99.90;;;;;;6135284;23;20404;-89
2021/09/24 03:31:21;;;;;;;14.00;11.90;;;12.90;99.90;;;;;;6133963;23;20441;-91
2021/09/24 03:33:48;;;;;;;13.70;11.03;;;12.80;99.90;;;;;;6126380;23;20894;-92
2021/09/24 03:36:15;;;;;;;14.73;11.20;;;12.90;99.90;;;;;;6125848;23;20448;-91
2021/09/24 03:38:43;;;;;;;15.37;11.57;;;12.80;99.90;;;;;;6125021;23;20416;-91
2021/09/24 03:41:10;;;;;;;13.90;12.07;;;12.90;99.90;;;;;;6125447;23;20412;-91
2021/09/24 03:43:37;;;;;;;14.83;11.03;;;12.80;99.90;;;;;;6125663;23;20902;-90
2021/09/24 03:46:04;;;;;;;12.57;11.20;;;12.90;99.90;;;;;;6126922;23;20425;-91
2021/09/24 03:48:31;;;;;;;12.53;11.20;;;12.80;99.90;;;;;;6125584;23;20421;-91
2021/09/24 03:50:58;;;;;;;15.90;11.43;;;12.90;99.90;;;;;;6125535;23;20427;-89
2021/09/24 03:53:25;;;;;;;19.80;11.63;;;12.90;99.90;;;;;;6125859;23;20434;-92
2021/09/24 03:55:53;;;;;;;12.63;10.63;;;12.90;99.90;;;;;;6131703;23;20444;-91
2021/09/24 03:58:20;;;;;;;11.07;9.80;;;12.90;99.90;;;;;;6153058;23;20463;-89
2021/09/24 04:00:47;;;;;;;12.47;10.23;;;12.90;99.90;;;;;;6152933;23;20905;-91
2021/09/24 04:03:14;;;;;;;12.90;9.97;;;13.00;99.90;;;;;;6135757;23;20411;-91
2021/09/24 04:05:41;;;;;;;16.93;12.10;;;13.00;99.90;;;;;;6131859;23;20950;-92
2021/09/24 04:08:08;;;;;;;18.17;12.90;;;13.00;99.90;;;;;;6142744;23;20413;-90
2021/09/24 04:10:35;;;;;;;24.03;13.40;;;12.90;99.90;;;;;;6154087;23;20420;-90
2021/09/24 04:13:03;;;;;;;16.03;11.13;;;12.90;99.90;;;;;;6136930;23;20408;-91
2021/09/24 04:15:30;;;;;;;16.53;10.97;;;12.90;99.90;;;;;;6135450;23;20446;-90
2021/09/24 04:17:57;;;;;;;14.20;11.10;;;12.90;99.90;;;;;;6132743;23;20499;-91
2021/09/24 04:20:24;;;;;;;15.80;11.20;;;12.90;99.90;;;;;;6128861;23;20381;-90
2021/09/24 04:22:51;;;;;;;14.13;12.00;;;12.90;99.90;;;;;;6128828;23;20406;-91
2021/09/24 04:25:18;;;;;;;18.50;12.63;;;12.90;99.90;;;;;;6140619;23;20467;-92
2021/09/24 04:27:44;;;;;;;18.00;12.90;;;12.90;99.90;;;;;;6140820;23;20456;-90
2021/09/24 04:30:16;;;;;;;13.63;11.90;;;12.90;99.90;;;;;;6131751;23;20401;-89
2021/09/24 04:32:43;;;;;;;18.63;11.87;;;12.90;99.90;;;;;;6143363;23;20425;-90
2021/09/24 04:35:13;;;;;;;19.33;12.67;;;12.80;99.90;;;;;;6149239;23;20445;-92
2021/09/24 04:37:41;;;;;;;17.53;12.60;;;12.90;99.90;;;;;;6149893;23;20400;-90
2021/09/24 04:40:11;;;;;;;34.60;12.40;;;12.80;99.90;;;;;;6140292;23;20389;-91
2021/09/24 04:42:38;;;;;;;15.50;11.73;;;12.90;99.90;;;;;;6136790;23;20417;-92
2021/09/24 04:45:06;;;;;;;13.30;11.27;;;12.90;99.90;;;;;;6145615;23;20516;-93
2021/09/24 04:47:34;;;;;;;13.03;11.63;;;12.80;99.90;;;;;;6135495;23;20396;-92
2021/09/24 04:50:01;;;;;;;15.53;11.83;;;12.90;99.90;;;;;;6132265;23;20422;-92
2021/09/24 04:52:28;;;;;;;13.20;10.90;;;12.90;99.90;;;;;;6130917;23;20416;-92
2021/09/24 04:54:55;;;;;;;14.63;11.30;;;12.80;99.90;;;;;;6129043;23;20432;-93
2021/09/24 04:57:23;;;;;;;15.60;9.60;;;12.80;99.90;;;;;;6130136;23;20433;-92
2021/09/24 04:59:50;;;;;;;16.20;10.33;;;12.80;99.90;;;;;;6125998;23;20510;-83
2021/09/24 05:02:17;;;;;;;14.43;12.67;;;12.80;99.90;;;;;;6131965;23;20468;-83
2021/09/24 05:04:45;;;;;;;16.47;12.43;;;12.80;99.90;;;;;;6129168;23;20404;-83
2021/09/24 05:07:12;;;;;;;23.90;12.43;;;12.80;99.90;;;;;;6128086;23;20408;-85
2021/09/24 05:09:39;;;;;;;24.10;12.57;;;12.70;99.90;;;;;;6127610;23;20416;-84
2021/09/24 05:12:06;;;;;;;20.77;11.60;;;12.70;99.90;;;;;;6128922;23;20419;-84
2021/09/24 05:14:35;;;;;;;17.83;11.90;;;12.70;99.90;;;;;;6151970;23;20401;-86
2021/09/24 05:17:01;;;;;;;19.30;12.77;;;12.70;99.90;;;;;;6140188;23;20454;-86
2021/09/24 05:19:28;;;;;;;22.27;15.30;;;12.70;99.90;;;;;;6125450;23;20428;-86
2021/09/24 05:21:56;;;;;;;22.63;14.03;;;12.70;99.90;;;;;;6126212;23;20428;-86
2021/09/24 05:24:23;;;;;;;22.63;15.10;;;12.70;99.90;;;;;;6126850;23;20405;-86
2021/09/24 05:26:50;;;;;;;25.50;16.83;;;12.70;99.90;;;;;;6126449;23;20405;-87
2021/09/24 05:29:16;;;;;;;24.77;14.90;;;12.80;99.90;;;;;;6126932;23;20416;-86
2021/09/24 05:31:43;;;;;;;29.67;15.60;;;12.80;99.90;;;;;;6133595;23;20415;-85
2021/09/24 05:34:10;;;;;;;21.50;15.20;;;12.90;99.90;;;;;;6140391;23;20422;-86
2021/09/24 05:36:37;;;;;;;28.27;14.33;;;12.90;99.90;;;;;;6139935;23;20456;-86
2021/09/24 05:39:05;;;;;;;24.03;14.93;;;12.90;99.90;;;;;;6132500;23;20924;-86
2021/09/24 05:41:31;;;;;;;26.60;15.33;;;12.80;99.90;;;;;;6129124;23;20407;-86
2021/09/24 05:43:58;;;;;;;20.43;15.10;;;12.90;99.90;;;;;;6126981;23;20415;-87
2021/09/24 05:46:25;;;;;;;23.70;15.40;;;12.90;99.90;;;;;;6127955;23;20752;-84
2021/09/24 05:48:52;;;;;;;27.83;15.80;;;12.90;99.90;;;;;;6127353;23;20751;-84
2021/09/24 05:51:18;;;;;;;26.03;15.93;;;12.90;99.90;;;;;;6126939;23;20415;-85
2021/09/24 05:53:46;;;;;;;28.47;16.40;;;12.90;99.90;;;;;;6128505;23;20407;-86
2021/09/24 05:56:14;;;;;;;26.90;15.70;;;12.90;99.90;;;;;;6128301;23;20468;-88
2021/09/24 05:58:41;;;;;;;23.00;15.80;;;13.00;99.90;;;;;;6146017;23;20409;-84
2021/09/24 06:01:07;;;;;;;19.40;13.63;;;13.10;99.90;;;;;;6133883;23;20445;-85
2021/09/24 06:03:34;;;;;;;20.13;12.50;;;13.10;99.90;;;;;;6127956;23;20418;-84
2021/09/24 06:06:01;;;;;;;13.53;11.90;;;13.20;99.90;;;;;;6131654;23;20401;-85
2021/09/24 06:08:28;;;;;;;22.53;14.00;;;13.20;99.90;;;;;;6127601;23;20396;-85
2021/09/24 06:10:55;;;;;;;20.13;14.43;;;13.20;99.90;;;;;;6129005;23;20425;-85
2021/09/24 06:13:23;;;;;;;20.80;13.03;;;13.20;99.90;;;;;;6130996;23;20409;-85
2021/09/24 06:15:50;;;;;;;30.70;13.30;;;13.20;99.90;;;;;;6143571;23;20434;-83
2021/09/24 06:18:17;;;;;;;20.90;14.70;;;13.20;99.90;;;;;;6147731;23;21032;-85
2021/09/24 06:20:44;;;;;;;22.73;14.70;;;13.30;99.90;;;;;;6127613;23;20425;-85
2021/09/24 06:23:11;;;;;;;25.47;14.73;;;13.30;99.90;;;;;;6127384;23;20416;-85
2021/09/24 06:25:38;;;;;;;25.13;15.60;;;13.30;99.90;;;;;;6126242;23;20418;-85
2021/09/24 06:28:05;;;;;;;26.27;14.60;;;13.40;99.90;;;;;;6126055;23;20409;-85
2021/09/24 06:30:34;;;;;;;23.87;14.60;;;13.50;99.90;;;;;;6127009;23;20535;-85
2021/09/24 06:33:01;;;;;;;27.03;15.20;;;13.60;99.90;;;;;;6125690;23;20462;-85
2021/09/24 06:35:27;;;;;;;33.67;16.17;;;13.70;99.90;;;;;;6127240;23;20438;-85
2021/09/24 06:37:54;;;;;;;26.67;16.30;;;13.70;99.90;;;;;;6128157;23;20397;-86
2021/09/24 06:40:21;;;;;;;21.73;14.50;;;13.80;99.90;;;;;;6127386;23;20444;-85
2021/09/24 06:42:48;;;;;;;16.67;13.20;;;13.90;99.90;;;;;;6129401;23;20395;-88
2021/09/24 06:45:14;;;;;;;23.40;16.43;;;14.00;99.90;;;;;;6127787;23;20411;-86
2021/09/24 06:47:43;;;;;;;25.70;15.50;;;14.20;99.90;;;;;;6127268;23;20918;-85
2021/09/24 06:50:11;;;;;;;18.13;14.27;;;14.20;99.90;;;;;;6128014;23;20429;-86
2021/09/24 06:52:39;;;;;;;18.50;13.90;;;14.20;99.90;;;;;;6128823;23;20406;-86
2021/09/24 06:55:06;;;;;;;24.20;15.30;;;14.30;99.90;;;;;;6140331;23;20393;-85
2021/09/24 06:57:34;;;;;;;25.67;16.20;;;14.40;99.90;;;;;;6130795;23;20443;-86
2021/09/24 07:00:01;;;;;;;28.40;17.07;;;14.40;99.90;;;;;;6126156;23;20743;-86
2021/09/24 07:02:28;;;;;;;25.50;15.80;;;14.50;99.90;;;;;;6131930;23;20414;-85
2021/09/24 07:04:56;;;;;;;17.47;12.77;;;14.60;99.90;;;;;;6147616;23;20394;-85
2021/09/24 07:07:22;;;;;;;18.03;13.67;;;14.70;99.90;;;;;;6151284;23;20405;-85
2021/09/24 07:09:49;;;;;;;18.43;13.80;;;14.80;99.90;;;;;;6142343;23;20436;-86
2021/09/24 07:12:16;;;;;;;16.73;13.33;;;14.90;99.90;;;;;;6130157;23;20419;-86
2021/09/24 07:14:43;;;;;;;20.83;13.33;;;15.00;99.90;;;;;;6134056;23;20416;-86
2021/09/24 07:17:10;;;;;;;14.80;11.83;;;15.10;99.90;;;;;;6133592;23;21049;-85
2021/09/24 07:19:37;;;;;;;14.87;12.60;;;15.20;99.90;;;;;;6127974;23;20432;-85
2021/09/24 07:22:05;;;;;;;17.80;13.47;;;15.30;99.90;;;;;;6139455;23;20444;-86
2021/09/24 07:24:31;;;;;;;20.93;15.00;;;15.40;99.90;;;;;;6143862;23;20410;-86
2021/09/24 07:26:58;;;;;;;19.47;14.17;;;15.40;99.90;;;;;;6139635;23;20395;-86
2021/09/24 07:29:27;;;;;;;13.37;11.77;;;15.50;99.90;;;;;;6131788;23;20430;-87
2021/09/24 07:31:54;;;;;;;16.90;12.47;;;15.70;99.90;;;;;;6128488;23;21071;-86
2021/09/24 07:34:21;;;;;;;15.90;13.23;;;15.80;99.90;;;;;;6132275;23;20398;-80
2021/09/24 07:36:48;;;;;;;16.27;12.80;;;15.90;99.90;;;;;;6143067;23;20439;-80
2021/09/24 07:39:16;;;;;;;15.57;11.97;;;16.00;99.90;;;;;;6144018;23;20433;-81
2021/09/24 07:41:42;;;;;;;17.27;13.20;;;16.30;99.90;;;;;;6143933;23;20409;-82
2021/09/24 07:44:09;;;;;;;12.23;10.90;;;16.40;99.90;;;;;;6142624;23;20407;-82
2021/09/24 07:46:36;;;;;;;14.87;11.83;;;16.60;99.90;;;;;;6143111;23;20411;-80
2021/09/24 07:49:04;;;;;;;13.27;10.43;;;16.80;99.90;;;;;;6143551;23;20431;-81
2021/09/24 07:51:34;;;;;;;12.20;9.97;;;16.80;99.90;;;;;;6137623;23;20402;-90
2021/09/24 07:54:01;;;;;;;14.93;8.50;;;17.10;99.90;;;;;;6128093;23;20422;-90
2021/09/24 07:56:30;;;;;;;12.70;9.43;;;17.50;99.90;;;;;;6128178;23;20431;-90
2021/09/24 07:58:56;;;;;;;9.23;8.33;;;17.70;99.90;;;;;;6147284;23;20391;-90
2021/09/24 08:01:25;;;;;;;11.80;8.70;;;17.70;99.90;;;;;;6139429;23;20441;-90
2021/09/24 08:03:51;;;;;;;14.30;9.60;;;17.70;99.90;;;;;;6135288;23;20449;-90
2021/09/24 08:06:27;;;;;;;9.73;8.73;;;17.80;99.90;;;;;;6146739;23;20427;-90
2021/09/24 08:08:55;;;;;;;12.70;8.97;;;17.90;99.90;;;;;;6138447;23;20483;-91
2021/09/24 08:11:22;;;;;;;10.60;8.80;;;17.80;99.90;;;;;;6137132;23;20413;-90
2021/09/24 08:13:50;;;;;;;11.17;9.03;;;17.90;99.90;;;;;;6140059;23;20410;-91
2021/09/24 08:16:17;;;;;;;8.87;8.03;;;18.00;99.90;;;;;;6134684;23;20780;-90
2021/09/24 08:18:44;;;;;;;13.23;9.10;;;18.00;99.90;;;;;;6147523;23;20413;-91
2021/09/24 08:21:10;;;;;;;14.10;9.57;;;18.20;99.90;;;;;;6153848;23;20406;-91
2021/09/24 08:23:39;;;;;;;12.27;9.23;;;18.40;99.90;;;;;;6153795;23;20415;-91
2021/09/24 08:26:09;;;;;;;11.07;9.53;;;18.40;99.90;;;;;;6152805;23;20423;-91
2021/09/24 08:28:36;;;;;;;11.00;9.07;;;18.50;99.90;;;;;;6149128;23;20408;-91
2021/09/24 08:31:04;;;;;;;9.17;8.10;;;18.50;99.90;;;;;;6132992;23;20435;-91
2021/09/24 08:33:31;;;;;;;12.57;10.50;;;18.70;99.90;;;;;;6154403;23;20484;-91
2021/09/24 08:35:58;;;;;;;11.47;9.00;;;18.80;99.90;;;;;;6152123;23;20410;-92
2021/09/24 08:38:25;;;;;;;10.17;9.10;;;18.80;99.90;;;;;;6152329;23;20412;-90
2021/09/24 08:40:52;;;;;;;10.10;9.00;;;18.90;99.90;;;;;;6148484;23;20432;-91
2021/09/24 08:43:19;;;;;;;10.67;9.30;;;19.00;99.90;;;;;;6131288;23;20415;-90
2021/09/24 08:45:48;;;;;;;9.33;7.60;;;19.10;99.90;;;;;;6131227;23;20423;-89
2021/09/24 08:48:18;;;;;;;9.93;7.80;;;19.20;99.90;;;;;;6129805;23;20513;-90
2021/09/24 08:50:46;;;;;;;8.90;7.70;;;19.40;99.90;;;;;;6130518;23;20428;-92
2021/09/24 08:53:14;;;;;;;11.93;8.63;;;19.50;99.90;;;;;;6129120;23;20496;-90
2021/09/24 08:55:42;;;;;;;9.00;8.10;;;19.60;99.90;;;;;;6131501;23;20869;-91
2021/09/24 08:58:09;;;;;;;8.30;7.50;;;19.70;99.90;;;;;;6130897;23;20450;-90
2021/09/24 09:00:42;;;;;;;11.53;7.03;;;20.20;99.80;;;;;;6130569;23;20453;-90
2021/09/24 09:03:13;;;;;;;8.70;8.00;;;22.50;97.90;;;;;;6130670;23;20412;-91
2021/09/24 09:05:44;;;;;;;7.90;7.10;;;24.50;92.10;;;;;;6130793;23;20403;-90
2021/09/24 09:08:15;;;;;;;8.10;7.30;;;26.50;87.10;;;;;;6129302;23;20419;-91
2021/09/24 09:10:52;;;;;;;8.63;7.73;;;28.40;76.80;;;;;;6132012;23;20435;-90
2021/09/24 09:13:22;;;;;;;9.10;7.10;;;29.20;70.30;;;;;;6130617;23;20870;-91
2021/09/24 09:15:57;;;;;;;7.33;6.63;;;31.30;64.20;;;;;;6129052;23;20423;-91
2021/09/24 09:18:24;;;;;;;7.40;6.70;;;31.90;58.30;;;;;;6129474;23;20453;-91
2021/09/24 09:20:53;;;;;;;7.03;6.50;;;31.60;56.70;;;;;;6129157;23;20440;-91
2021/09/24 09:23:22;;;;;;;6.70;6.20;;;32.30;55.90;;;;;;6129159;23;20415;-92
2021/09/24 09:25:50;;;;;;;6.93;6.33;;;33.30;53.50;;;;;;6127646;23;20419;-91
2021/09/24 09:28:27;;;;;;;8.80;8.07;;;32.30;52.10;;;;;;6127800;23;20418;-91
2021/09/24 09:30:54;;;;;;;8.60;6.73;;;32.30;53.30;;;;;;6130325;23;20780;-91
2021/09/24 09:33:29;;;;;;;11.20;6.30;;;31.00;54.60;;;;;;6143579;23;20491;-90
2021/09/24 09:36:02;;;;;;;7.30;6.00;;;29.40;57.10;;;;;;6153640;23;20395;-92
2021/09/24 09:38:30;;;;;;;5.20;4.80;;;30.30;58.20;;;;;;6143200;23;20940;-90
2021/09/24 09:41:00;;;;;;;7.13;5.23;;;30.30;56.00;;;;;;6131275;23;20458;-91
2021/09/24 09:43:34;;;;;;;6.03;4.90;;;30.20;56.70;;;;;;6132292;23;20898;-90
2021/09/24 09:46:13;;;;;;;7.37;4.70;;;30.10;55.90;;;;;;6150634;23;20407;-91
2021/09/24 09:48:40;;;;;;;6.70;5.97;;;29.10;57.40;;;;;;6136186;23;20412;-90
2021/09/24 09:51:09;;;;;;;7.67;5.90;;;28.10;58.80;;;;;;6128723;23;20437;-90
2021/09/24 09:53:36;;;;;;;6.50;4.80;;;27.90;60.50;;;;;;6131572;23;20412;-90
2021/09/24 09:56:06;;;;;;;4.77;4.43;;;29.30;59.00;;;;;;6129719;23;20439;-90
2021/09/24 09:58:38;;;;;;;4.57;4.17;;;29.00;58.40;;;;;;6129461;23;20438;-90
2021/09/24 10:01:08;;;;;;;4.90;4.20;;;29.40;58.10;;;;;;6131968;23;20446;-90
2021/09/24 10:03:40;;;;;;;11.30;4.97;;;30.10;56.70;;;;;;6130005;23;20949;-90
2021/09/24 10:06:22;;;;;;;6.60;5.27;;;29.60;55.90;;;;;;6127785;23;20415;-90
2021/09/24 10:08:52;;;;;;;4.77;4.27;;;28.40;58.10;;;;;;6132166;23;20415;-90
2021/09/24 10:11:20;;;;;;;5.03;4.40;;;27.50;60.00;;;;;;6128667;23;20408;-90
2021/09/24 10:13:52;;;;;;;5.93;5.27;;;27.10;60.70;;;;;;6128065;23;20416;-90
2021/09/24 10:16:21;;;;;;;5.40;4.90;;;27.40;62.80;;;;;;6127114;23;20417;-89
2021/09/24 10:18:48;;;;;;;7.53;5.00;;;28.90;59.20;;;;;;6126781;23;20444;-91
2021/09/24 10:21:16;;;;;;;6.23;5.60;;;30.50;56.00;;;;;;6126705;23;20775;-90
2021/09/24 10:23:45;;;;;;;7.00;5.67;;;30.80;54.50;;;;;;6127592;23;20492;-92
2021/09/24 10:26:19;;;;;;;5.40;5.00;;;33.10;52.20;;;;;;6126249;23;21035;-91
2021/09/24 10:28:47;;;;;;;5.03;4.57;;;35.20;47.90;;;;;;6128334;23;20458;-91
2021/09/24 10:31:17;;;;;;;5.30;4.80;;;33.40;48.40;;;;;;6130997;23;20527;-89
2021/09/24 10:33:51;;;;;;;5.83;5.23;;;32.30;49.90;;;;;;6136256;23;20414;-92
2021/09/24 10:36:40;;;;;;;5.20;4.70;;;32.50;50.40;;;;;;6139505;23;20411;-91
2021/09/24 10:39:53;;;;;;;4.43;4.03;;;34.10;48.00;;;;;;6151695;23;20475;-91
2021/09/24 10:42:23;;;;;;;5.27;4.80;;;35.40;45.20;;;;;;6153037;23;20396;-93
2021/09/24 10:45:07;;;;;;;4.10;3.80;;;38.00;43.20;;;;;;6152888;23;20435;-92
2021/09/24 10:47:53;;;;;;;4.23;3.93;;;38.80;40.10;;;;;;6151337;23;20392;-91
2021/09/24 10:51:00;;;;;;;6.50;4.40;;;39.90;38.60;;;;;;6134938;23;20459;-91
2021/09/24 10:53:40;;;;;;;4.57;4.10;;;41.10;36.60;;;;;;6136403;23;20765;-91
2021/09/24 10:56:29;;;;;;;3.57;3.27;;;41.50;34.70;;;;;;6129467;23;20474;-92
2021/09/24 10:58:58;;;;;;;4.13;3.40;;;40.70;34.60;;;;;;6125754;23;20446;-91
2021/09/24 11:01:40;;;;;;;4.27;3.97;;;41.30;34.30;;;;;;6127157;23;20460;-92
2021/09/24 11:04:12;;;;;;;4.07;3.67;;;41.60;33.90;;;;;;6127391;23;20423;-91
2021/09/24 11:06:45;;;;;;;5.43;4.10;;;41.00;33.90;;;;;;6129297;23;20423;-91
2021/09/24 11:09:13;;;;;;;4.40;4.00;;;42.10;33.20;;;;;;6135713;23;20404;-91
2021/09/24 11:11:44;;;;;;;9.50;3.70;;;41.10;33.00;;;;;;6145846;23;20474;-91
2021/09/24 11:14:42;;;;;;;5.90;4.73;;;40.70;34.20;;;;;;6128310;23;20422;-91
2021/09/24 11:17:39;;;;;;;4.27;3.40;;;41.30;33.50;;;;;;6040170;23;20489;-94
2021/09/24 11:20:31;;;;;;;4.60;3.87;;;41.30;32.70;;;;;;6126994;23;20443;-91
2021/09/24 11:22:58;;;;;;;5.17;4.40;;;41.70;32.70;;;;;;6129092;23;20376;-91
2021/09/24 11:25:29;;;;;;;3.63;3.33;;;41.80;32.00;;;;;;6130744;23;20415;-91
2021/09/24 11:29:08;;;;;;;4.50;3.77;;;42.10;31.60;;;;;;6138016;23;20399;-91
2021/09/24 11:32:11;;;;;;;3.10;2.90;;;41.80;31.50;;;;;;6147365;23;20411;-92
2021/09/24 11:35:05;;;;;;;3.63;3.43;;;40.80;31.50;;;;;;6129512;23;20418;-92
2021/09/24 11:37:40;;;;;;;4.03;3.47;;;41.30;31.20;;;;;;6076600;23;20950;-91
2021/09/24 11:40:09;;;;;;;3.47;3.20;;;39.80;32.40;;;;;;6128420;23;20443;-92
2021/09/24 11:42:38;;;;;;;4.07;3.70;;;38.70;34.20;;;;;;6127962;23;20419;-91
2021/09/24 11:45:10;;;;;;;6.13;3.30;;;39.30;33.50;;;;;;6139334;23;20415;-91
2021/09/24 11:47:41;;;;;;;3.90;3.50;;;40.00;33.10;;;;;;6145522;23;20399;-90
2021/09/24 11:50:11;;;;;;;3.27;3.07;;;39.50;33.40;;;;;;6129609;23;20439;-91
2021/09/24 11:52:41;;;;;;;3.00;2.80;;;39.00;33.20;;;;;;6132015;23;20411;-92
2021/09/24 11:55:29;;;;;;;4.07;3.70;;;37.90;34.20;;;;;;6128858;23;20879;-91
2021/09/24 11:58:11;;;;;;;3.43;3.13;;;37.90;34.10;;;;;;6128887;23;20446;-91
2021/09/24 12:00:42;;;;;;;3.80;3.50;;;39.00;33.60;;;;;;6129153;23;20510;-91
2021/09/24 12:03:17;;;;;;;3.40;3.10;;;38.80;33.80;;;;;;6128742;23;20411;-91
2021/09/24 12:05:52;;;;;;;3.50;3.20;;;36.60;36.70;;;;;;6129208;23;20539;-91
2021/09/24 12:08:23;;;;;;;3.80;3.50;;;37.00;36.10;;;;;;6136014;23;20427;-90
2021/09/24 12:11:01;;;;;;;3.90;3.60;;;37.90;35.90;;;;;;6132253;23;20442;-91
2021/09/24 12:13:51;;;;;;;3.70;3.40;;;38.20;35.00;;;;;;6138661;23;20761;-91
2021/09/24 12:16:21;;;;;;;6.30;3.70;;;39.50;33.80;;;;;;6135141;23;20772;-92
2021/09/24 12:18:51;;;;;;;4.00;3.50;;;39.70;32.70;;;;;;6128580;23;20447;-90
2021/09/24 12:21:21;;;;;;;3.90;3.70;;;38.50;33.50;;;;;;6128578;23;20428;-91
2021/09/24 12:23:48;;;;;;;3.67;3.40;;;37.60;34.90;;;;;;6129230;23;20426;-92
2021/09/24 12:26:15;;;;;;;5.53;3.40;;;37.20;35.80;;;;;;6129229;23;20458;-91
2021/09/24 12:28:58;;;;;;;3.57;3.37;;;37.00;35.80;;;;;;6128315;23;20400;-90
2021/09/24 12:31:39;;;;;;;3.90;3.30;;;35.20;36.80;;;;;;6128239;23;20396;-90
2021/09/24 12:34:06;;;;;;;4.03;3.73;;;34.20;38.10;;;;;;6129812;23;20455;-92
2021/09/24 12:36:37;;;;;;;4.53;3.33;;;33.60;39.20;;;;;;6129679;23;20447;-91
2021/09/24 12:39:15;;;;;;;5.00;4.17;;;34.80;39.10;;;;;;6134662;23;20455;-92
2021/09/24 12:41:45;;;;;;;5.10;4.00;;;36.50;36.60;;;;;;6139918;23;20418;-92
2021/09/24 12:44:14;;;;;;;4.77;4.33;;;37.80;35.10;;;;;;6135781;23;20419;-92